Time;durP1;ratioP1;P1;durP2;ratioP2;P2;SDS_P1;SDS_P2;PMS_P1;PMS_P2;Temp;Humidity;BMP_temperature;BMP_pressure;BME280_temperature;BME280_humidity;BME280_pressure;Samples;Min_cycle;Max_cycle;Signal;HPM_P1;HPM_P2
2022/07/27 00:00:41;;;;;;;;;;;;;;;26.18;51.29;99206.06;5082040;28;19916;-69
2022/07/27 00:03:07;;;;;;;;;;;;;;;26.20;51.16;99212.03;5082909;28;19924;-69
2022/07/27 00:05:32;;;;;;;;;;;;;;;26.22;51.03;99216.09;5086726;28;20225;-69
2022/07/27 00:07:57;;;;;;;;;;;;;;;26.21;51.40;99225.31;5086602;28;20116;-69
2022/07/27 00:10:23;;;;;;;;;;;;;;;26.34;51.35;99215.81;5084070;28;19908;-69
2022/07/27 00:12:48;;;;;;;;;;;;;;;26.33;51.87;99217.69;5084880;28;19924;-70
2022/07/27 00:15:13;;;;;;;;;;;;;;;26.35;51.34;99220.13;5084836;28;19987;-69
2022/07/27 00:17:38;;;;;;;;;;;;;;;26.32;51.70;99220.66;5084305;28;19987;-69
2022/07/27 00:20:04;;;;;;;;;;;;;;;26.35;51.34;99218.25;5085788;28;19916;-69
2022/07/27 00:22:29;;;;;;;;;;;;;;;26.33;51.37;99223.13;5085281;28;20193;-69
2022/07/27 00:24:54;;;;;;;;;;;;;;;26.29;51.49;99224.75;5083697;28;20095;-69
2022/07/27 00:27:20;;;;;;;;;;;;;;;26.30;51.58;99220.13;5086186;28;19946;-70
2022/07/27 00:29:45;;;;;;;;;;;;;;;26.23;51.82;99219.63;5084760;28;19919;-69
2022/07/27 00:32:10;;;;;;;;;;;;;;;26.26;51.62;99217.16;5087299;28;20206;-69
2022/07/27 00:34:36;;;;;;;;;;;;;;;26.32;51.75;99221.50;5085231;28;19963;-69
2022/07/27 00:37:01;;;;;;;;;;;;;;;26.26;51.70;99221.78;5086077;28;19958;-69
2022/07/27 00:39:27;;;;;;;;;;;;;;;26.18;52.15;99222.34;5087341;28;20130;-69
2022/07/27 00:41:52;;;;;;;;;;;;;;;26.08;52.49;99234.84;5085318;28;20319;-69
2022/07/27 00:44:25;;;;;;;;;;;;;;;26.01;52.84;99228.91;5084778;28;19962;-69
2022/07/27 00:46:50;;;;;;;;;;;;;;;25.98;52.73;99231.31;5085159;28;20170;-69
2022/07/27 00:49:16;;;;;;;;;;;;;;;25.94;52.81;99231.06;5085860;28;19931;-69
2022/07/27 00:51:41;;;;;;;;;;;;;;;25.83;53.19;99234.88;5084106;28;20060;-69
2022/07/27 00:54:06;;;;;;;;;;;;;;;25.86;53.61;99233.53;5083328;28;19920;-69
2022/07/27 00:56:31;;;;;;;;;;;;;;;25.66;53.55;99235.19;5085422;28;19908;-69
2022/07/27 00:58:57;;;;;;;;;;;;;;;25.68;53.12;99229.50;5083777;28;19991;-69
2022/07/27 01:01:22;;;;;;;;;;;;;;;25.82;53.00;99237.88;5083407;28;19975;-69
2022/07/27 01:03:47;;;;;;;;;;;;;;;25.75;52.77;99240.88;5085997;28;19983;-69
2022/07/27 01:06:13;;;;;;;;;;;;;;;25.82;52.86;99243.31;5085326;28;19919;-69
2022/07/27 01:08:40;;;;;;;;;;;;;;;25.85;52.51;99242.75;5085573;28;19920;-69
2022/07/27 01:11:05;;;;;;;;;;;;;;;25.73;53.48;99243.03;5083812;28;20075;-69
2022/07/27 01:13:31;;;;;;;;;;;;;;;25.76;53.35;99246.00;5082919;28;19919;-69
2022/07/27 01:15:56;;;;;;;;;;;;;;;25.67;53.74;99244.13;5083658;28;19919;-69
2022/07/27 01:18:29;;;;;;;;;;;;;;;25.56;53.93;99239.78;5085088;28;19928;-69
2022/07/27 01:20:55;;;;;;;;;;;;;;;25.55;53.51;99240.84;5082906;28;20292;-68
2022/07/27 01:23:24;;;;;;;;;;;;;;;25.51;53.48;99251.44;5083237;28;21076;-69
2022/07/27 01:25:49;;;;;;;;;;;;;;;25.50;53.47;99252.50;5094323;28;20165;-69
2022/07/27 01:28:15;;;;;;;;;;;;;;;25.40;53.29;99255.22;5083922;28;19952;-69
2022/07/27 01:30:40;;;;;;;;;;;;;;;25.52;52.53;99253.06;5085542;28;19935;-69
2022/07/27 01:33:06;;;;;;;;;;;;;;;25.57;52.80;99249.53;5083776;28;19924;-69
2022/07/27 01:35:32;;;;;;;;;;;;;;;25.31;54.38;99248.72;5084238;28;19913;-69
2022/07/27 01:37:58;;;;;;;;;;;;;;;25.18;53.94;99249.25;5085328;28;20142;-69
2022/07/27 01:40:23;;;;;;;;;;;;;;;25.20;53.67;99252.50;5084827;28;19912;-69
2022/07/27 01:42:49;;;;;;;;;;;;;;;24.80;54.63;99254.81;5085570;28;19969;-69
2022/07/27 01:45:14;;;;;;;;;;;;;;;24.61;55.61;99255.56;5085024;28;19982;-69
2022/07/27 01:47:39;;;;;;;;;;;;;;;24.46;56.45;99250.91;5084194;28;19916;-69
2022/07/27 01:50:05;;;;;;;;;;;;;;;24.44;56.47;99253.06;5085394;28;19913;-69
2022/07/27 01:52:30;;;;;;;;;;;;;;;24.34;56.66;99244.91;5083820;28;19916;-69
2022/07/27 01:54:56;;;;;;;;;;;;;;;24.20;57.47;99250.75;5084893;28;19944;-69
2022/07/27 01:57:21;;;;;;;;;;;;;;;24.12;58.10;99253.16;5084240;28;20028;-69
2022/07/27 01:59:46;;;;;;;;;;;;;;;24.24;57.97;99251.06;5082836;28;19912;-69
2022/07/27 02:02:14;;;;;;;;;;;;;;;24.25;57.88;99249.97;5081935;28;19908;-69
2022/07/27 02:04:40;;;;;;;;;;;;;;;24.20;58.69;99256.16;5083411;28;19991;-69
2022/07/27 02:07:05;;;;;;;;;;;;;;;24.23;58.66;99248.59;5083436;28;19920;-69
2022/07/27 02:09:30;;;;;;;;;;;;;;;24.35;58.51;99262.75;5083365;28;19979;-69
2022/07/27 02:14:39;;;;;;;;;;;;;;;24.61;57.43;99250.97;5083941;28;19930;-69
2022/07/27 02:17:05;;;;;;;;;;;;;;;24.36;58.32;99257.09;5084204;28;19912;-69
2022/07/27 02:19:30;;;;;;;;;;;;;;;24.30;58.39;99249.22;5087529;28;20157;-69
2022/07/27 02:21:55;;;;;;;;;;;;;;;24.30;58.22;99255.44;5083013;28;19912;-69
2022/07/27 02:24:21;;;;;;;;;;;;;;;24.32;58.41;99252.47;5081599;28;19924;-69
2022/07/27 02:26:46;;;;;;;;;;;;;;;24.40;58.21;99258.19;5083847;28;20109;-69
2022/07/27 02:29:11;;;;;;;;;;;;;;;24.52;58.21;99255.25;5082493;28;20076;-69
2022/07/27 02:31:36;;;;;;;;;;;;;;;24.47;58.02;99258.75;5081138;28;20102;-69
2022/07/27 02:34:02;;;;;;;;;;;;;;;24.51;57.91;99254.44;5063978;28;19924;-69
2022/07/27 02:36:30;;;;;;;;;;;;;;;24.58;57.56;99253.38;5083294;28;19943;-69
2022/07/27 02:38:56;;;;;;;;;;;;;;;24.57;57.93;99262.59;5083735;28;19928;-69
2022/07/27 02:41:21;;;;;;;;;;;;;;;24.63;58.19;99258.81;5083095;28;20217;-68
2022/07/27 02:43:46;;;;;;;;;;;;;;;24.78;57.24;99262.38;5084772;28;19928;-69
2022/07/27 02:46:12;;;;;;;;;;;;;;;24.68;57.17;99261.53;5098043;28;20002;-69
2022/07/27 02:48:37;;;;;;;;;;;;;;;24.54;57.83;99258.53;5101723;28;19923;-69
2022/07/27 02:51:02;;;;;;;;;;;;;;;24.48;58.50;99257.69;5086968;28;19912;-69
2022/07/27 02:53:29;;;;;;;;;;;;;;;24.51;57.90;99264.47;5084243;28;20216;-69
2022/07/27 02:55:54;;;;;;;;;;;;;;;24.46;58.33;99267.97;5083715;28;19950;-69
2022/07/27 02:58:20;;;;;;;;;;;;;;;24.56;58.60;99261.78;5084028;28;19928;-69
2022/07/27 03:00:45;;;;;;;;;;;;;;;24.53;58.21;99265.00;5083939;28;19908;-69
2022/07/27 03:03:10;;;;;;;;;;;;;;;24.36;58.66;99267.09;5082357;28;20087;-69
2022/07/27 03:05:36;;;;;;;;;;;;;;;24.38;59.03;99273.06;5084204;28;19912;-68
2022/07/27 03:08:02;;;;;;;;;;;;;;;24.26;59.36;99262.41;5083316;28;19923;-69
2022/07/27 03:10:28;;;;;;;;;;;;;;;24.13;59.79;99277.22;5083372;28;20106;-69
2022/07/27 03:12:53;;;;;;;;;;;;;;;24.05;60.23;99271.50;5083702;28;20058;-69
2022/07/27 03:15:18;;;;;;;;;;;;;;;24.08;60.37;99273.69;5081958;28;19912;-69
2022/07/27 03:17:44;;;;;;;;;;;;;;;24.16;60.31;99268.59;5082586;28;20152;-69
2022/07/27 03:20:09;;;;;;;;;;;;;;;24.18;60.11;99271.03;5082876;28;19920;-69
2022/07/27 03:22:35;;;;;;;;;;;;;;;24.36;59.18;99267.91;5082988;28;19920;-69
2022/07/27 03:25:00;;;;;;;;;;;;;;;24.47;58.77;99276.88;5082079;28;19912;-69
2022/07/27 03:27:25;;;;;;;;;;;;;;;24.54;58.32;99277.47;5080797;28;19933;-69
2022/07/27 03:29:51;;;;;;;;;;;;;;;24.50;58.32;99281.78;5081544;28;19920;-69
2022/07/27 03:32:16;;;;;;;;;;;;;;;24.56;58.05;99290.72;5084412;28;19983;-69
2022/07/27 03:34:41;;;;;;;;;;;;;;;24.70;57.63;99294.56;5082183;28;19983;-69
2022/07/27 03:37:07;;;;;;;;;;;;;;;24.74;57.32;99292.97;5084253;28;19973;-69
2022/07/27 03:39:32;;;;;;;;;;;;;;;24.76;57.43;99299.75;5082926;28;20200;-69
2022/07/27 03:41:57;;;;;;;;;;;;;;;24.82;57.82;99300.56;5085997;28;19920;-69
2022/07/27 03:44:22;;;;;;;;;;;;;;;24.94;57.17;99292.22;5086848;28;19975;-68
2022/07/27 03:46:48;;;;;;;;;;;;;;;25.17;56.79;99299.91;5087929;28;19920;-69
2022/07/27 03:49:13;;;;;;;;;;;;;;;25.17;56.26;99307.22;5086921;28;19916;-69
2022/07/27 03:51:39;;;;;;;;;;;;;;;25.15;57.03;99304.78;5069037;28;19912;-69
2022/07/27 03:54:04;;;;;;;;;;;;;;;25.22;56.81;99310.75;5087332;28;19924;-69
2022/07/27 03:56:31;;;;;;;;;;;;;;;25.22;57.75;99309.94;5089590;28;19912;-69
2022/07/27 03:58:57;;;;;;;;;;;;;;;25.04;57.80;99314.78;5087667;28;19952;-69
2022/07/27 04:01:22;;;;;;;;;;;;;;;25.12;57.43;99314.25;5086973;28;20149;-69
2022/07/27 04:03:47;;;;;;;;;;;;;;;25.01;57.13;99317.22;5086523;28;19912;-69
2022/07/27 04:06:13;;;;;;;;;;;;;;;25.07;57.04;99322.38;5086705;28;20197;-69
2022/07/27 04:08:38;;;;;;;;;;;;;;;24.97;56.64;99316.94;5086648;28;19916;-69
2022/07/27 04:11:03;;;;;;;;;;;;;;;24.91;57.17;99323.34;5085774;28;19955;-69
2022/07/27 04:13:28;;;;;;;;;;;;;;;24.96;57.08;99323.38;5086681;28;19931;-69
2022/07/27 04:15:56;;;;;;;;;;;;;;;24.91;57.30;99325.25;5085624;28;19934;-69
2022/07/27 04:18:22;;;;;;;;;;;;;;;24.98;57.41;99325.88;5085352;28;19923;-69
2022/07/27 04:20:47;;;;;;;;;;;;;;;24.90;57.46;99327.16;5086057;28;19908;-69
2022/07/27 04:23:12;;;;;;;;;;;;;;;25.08;57.09;99323.19;5085469;28;19916;-69
2022/07/27 04:25:37;;;;;;;;;;;;;;;25.04;57.50;99327.53;5083925;28;19904;-69
2022/07/27 04:28:03;;;;;;;;;;;;;;;25.29;56.94;99334.88;5084574;28;19916;-69
2022/07/27 04:30:28;;;;;;;;;;;;;;;25.30;56.77;99337.34;5084516;28;20170;-69
2022/07/27 04:32:53;;;;;;;;;;;;;;;25.15;57.77;99337.31;5087156;28;20079;-69
2022/07/27 04:35:19;;;;;;;;;;;;;;;25.19;56.87;99335.69;5087475;28;19965;-69
2022/07/27 04:37:44;;;;;;;;;;;;;;;25.31;57.37;99338.16;5086674;28;19924;-70
2022/07/27 04:40:10;;;;;;;;;;;;;;;25.52;57.00;99347.13;5086741;28;19928;-69
2022/07/27 04:42:35;;;;;;;;;;;;;;;25.50;57.21;99338.44;5086400;28;19920;-69
2022/07/27 04:45:00;;;;;;;;;;;;;;;25.62;57.09;99347.13;5084889;28;20202;-69
2022/07/27 04:47:25;;;;;;;;;;;;;;;25.95;55.95;99345.81;5086928;28;20156;-69
2022/07/27 04:49:51;;;;;;;;;;;;;;;26.12;55.62;99354.50;5086717;28;19920;-69
2022/07/27 04:52:16;;;;;;;;;;;;;;;26.28;55.08;99356.09;5084400;28;19912;-69
2022/07/27 04:54:42;;;;;;;;;;;;;;;26.23;55.33;99344.44;5084884;28;19928;-69
2022/07/27 04:57:07;;;;;;;;;;;;;;;26.24;55.40;99352.31;5087541;28;19916;-69
2022/07/27 04:59:32;;;;;;;;;;;;;;;26.46;54.92;99349.31;5085812;28;19953;-69
2022/07/27 05:01:58;;;;;;;;;;;;;;;26.87;52.99;99357.31;5083286;28;19909;-69
2022/07/27 05:04:23;;;;;;;;;;;;;;;27.01;52.53;99361.09;5083124;28;19916;-69
2022/07/27 05:06:48;;;;;;;;;;;;;;;27.01;52.64;99361.91;5085220;28;19975;-69
2022/07/27 05:09:14;;;;;;;;;;;;;;;27.02;53.63;99366.25;5085976;28;19947;-69
2022/07/27 05:11:39;;;;;;;;;;;;;;;27.28;52.61;99364.25;5085195;28;20194;-69
2022/07/27 05:14:04;;;;;;;;;;;;;;;27.41;52.41;99362.00;5067787;28;20091;-69
2022/07/27 05:16:29;;;;;;;;;;;;;;;27.50;51.67;99369.25;5083176;28;19919;-70
2022/07/27 05:18:55;;;;;;;;;;;;;;;27.54;51.19;99361.34;5084775;28;20022;-70
2022/07/27 05:21:20;;;;;;;;;;;;;;;27.74;50.57;99360.44;5086165;28;19950;-70
2022/07/27 05:23:46;;;;;;;;;;;;;;;27.77;50.07;99359.84;5085047;28;19948;-70
2022/07/27 05:26:11;;;;;;;;;;;;;;;27.84;49.98;99360.34;5085567;28;20140;-69
2022/07/27 05:28:36;;;;;;;;;;;;;;;27.81;50.64;99366.34;5084528;28;19923;-70
2022/07/27 05:31:01;;;;;;;;;;;;;;;28.04;49.64;99362.88;5085981;28;19942;-69
2022/07/27 05:33:27;;;;;;;;;;;;;;;27.89;49.25;99303.97;5090142;28;20017;-70
2022/07/27 05:35:53;;;;;;;;;;;;;;;28.34;49.18;99369.19;5102764;28;19908;-70
2022/07/27 05:38:19;;;;;;;;;;;;;;;28.41;49.21;99373.22;5097237;28;19983;-69
2022/07/27 05:40:44;;;;;;;;;;;;;;;28.59;48.25;99380.63;5084903;28;19919;-69
2022/07/27 05:43:10;;;;;;;;;;;;;;;28.97;47.20;99372.59;5085027;28;19983;-69
2022/07/27 05:45:35;;;;;;;;;;;;;;;29.03;47.08;99368.69;5083940;28;20090;-70
2022/07/27 05:48:00;;;;;;;;;;;;;;;29.11;47.38;99372.69;5084270;28;19920;-70
2022/07/27 05:50:26;;;;;;;;;;;;;;;29.10;47.09;99380.06;5084887;28;20206;-70
2022/07/27 05:52:51;;;;;;;;;;;;;;;29.28;46.94;99383.13;5085375;28;19923;-69
2022/07/27 05:55:16;;;;;;;;;;;;;;;29.46;46.31;99372.25;5086625;28;20311;-70
2022/07/27 05:57:42;;;;;;;;;;;;;;;29.84;44.89;99377.66;5083283;28;19916;-70
2022/07/27 06:00:09;;;;;;;;;;;;;;;30.16;44.32;99369.50;5086979;28;19924;-70
2022/07/27 06:02:34;;;;;;;;;;;;;;;30.11;42.63;99368.78;5066127;28;19912;-69
2022/07/27 06:04:59;;;;;;;;;;;;;;;30.26;42.54;99370.47;5083716;28;20198;-69
2022/07/27 06:10:10;;;;;;;;;;;;;;;30.21;43.40;99373.28;5083547;28;19951;-69
2022/07/27 06:12:42;;;;;;;;;;;;;;;30.26;43.71;99373.19;5083686;28;19917;-70
2022/07/27 06:15:08;;;;;;;;;;;;;;;30.22;42.72;99375.72;5084729;28;19927;-70
2022/07/27 06:17:34;;;;;;;;;;;;;;;30.30;42.18;99366.84;5083369;28;19920;-69
2022/07/27 06:19:59;;;;;;;;;;;;;;;30.45;42.38;99371.19;5096758;28;19958;-70
2022/07/27 06:22:24;;;;;;;;;;;;;;;30.90;41.43;99365.97;5079409;28;19950;-70
2022/07/27 06:24:50;;;;;;;;;;;;;;;30.98;40.90;99363.31;5098118;28;19919;-70
2022/07/27 06:27:15;;;;;;;;;;;;;;;31.29;39.41;99366.25;5094139;28;20295;-70
2022/07/27 06:29:41;;;;;;;;;;;;;;;31.35;39.93;99362.31;5101785;28;19916;-69
2022/07/27 06:32:06;;;;;;;;;;;;;;;31.32;38.73;99362.91;5086513;28;19912;-70
2022/07/27 06:34:31;;;;;;;;;;;;;;;31.26;39.27;99364.16;5107003;28;20018;-70
2022/07/27 06:36:58;;;;;;;;;;;;;;;31.79;37.80;99365.41;5106003;28;19926;-70
2022/07/27 06:39:24;;;;;;;;;;;;;;;31.99;37.50;99368.44;5108168;28;19992;-71
2022/07/27 06:41:49;;;;;;;;;;;;;;;32.22;37.27;99366.50;5103958;28;20102;-71
2022/07/27 06:44:15;;;;;;;;;;;;;;;32.05;37.58;99361.72;5103088;28;19915;-71
2022/07/27 06:46:41;;;;;;;;;;;;;;;32.15;37.28;99366.13;5102347;28;20149;-70
2022/07/27 06:49:07;;;;;;;;;;;;;;;32.59;36.74;99365.25;5102400;28;19962;-70
2022/07/27 06:51:32;;;;;;;;;;;;;;;32.92;35.92;99357.50;5099920;28;19955;-70
2022/07/27 06:53:57;;;;;;;;;;;;;;;32.98;36.22;99349.94;5107817;28;19920;-70
2022/07/27 06:56:23;;;;;;;;;;;;;;;33.10;35.96;99346.56;5093498;28;19923;-70
2022/07/27 06:58:49;;;;;;;;;;;;;;;32.98;36.15;99344.44;5105681;28;19946;-70
2022/07/27 07:01:14;;;;;;;;;;;;;;;33.01;36.14;99343.78;5104904;28;19916;-70
2022/07/27 07:03:39;;;;;;;;;;;;;;;33.29;35.41;99339.69;5086182;28;20255;-70
2022/07/27 07:06:04;;;;;;;;;;;;;;;33.06;36.44;99331.88;5104045;28;19954;-70
2022/07/27 07:08:30;;;;;;;;;;;;;;;33.04;35.50;99334.94;5103336;28;19908;-70
2022/07/27 07:10:55;;;;;;;;;;;;;;;33.17;36.01;99335.91;5101864;28;19935;-70
2022/07/27 07:13:20;;;;;;;;;;;;;;;33.25;35.27;99329.63;5101253;28;19975;-70
2022/07/27 07:15:46;;;;;;;;;;;;;;;33.59;34.69;99321.44;5107935;28;20113;-70
2022/07/27 07:18:11;;;;;;;;;;;;;;;33.35;34.30;99328.56;5113522;28;20174;-70
2022/07/27 07:20:37;;;;;;;;;;;;;;;33.55;34.26;99325.97;5111740;28;19927;-71
2022/07/27 07:23:03;;;;;;;;;;;;;;;33.78;33.78;99325.78;5112443;28;19982;-70
2022/07/27 07:25:29;;;;;;;;;;;;;;;34.02;33.03;99323.31;5111018;28;19916;-70
2022/07/27 07:27:55;;;;;;;;;;;;;;;34.11;33.45;99315.06;5107423;28;19990;-70
2022/07/27 07:30:21;;;;;;;;;;;;;;;34.07;34.35;99319.59;5108090;28;19928;-70
2022/07/27 07:32:47;;;;;;;;;;;;;;;34.00;34.44;99320.09;5109440;28;19942;-70
2022/07/27 07:35:12;;;;;;;;;;;;;;;33.98;33.91;99313.31;5104896;28;19928;-70
2022/07/27 07:37:37;;;;;;;;;;;;;;;34.25;34.19;99318.41;5091907;28;20140;-70
2022/07/27 07:40:03;;;;;;;;;;;;;;;34.27;32.73;99313.38;5109308;28;19916;-70
2022/07/27 07:42:28;;;;;;;;;;;;;;;34.43;32.15;99316.44;5112500;28;20139;-70
2022/07/27 07:44:54;;;;;;;;;;;;;;;34.58;31.83;99310.38;5108524;28;19916;-70
2022/07/27 07:47:19;;;;;;;;;;;;;;;34.67;32.69;99308.41;5110322;28;20148;-71
2022/07/27 07:49:45;;;;;;;;;;;;;;;34.65;33.04;99307.13;5106681;28;19946;-70
2022/07/27 07:52:10;;;;;;;;;;;;;;;34.91;32.85;99309.75;5107263;28;20094;-71
2022/07/27 07:54:35;;;;;;;;;;;;;;;34.74;32.60;99307.88;5105687;28;19949;-70
2022/07/27 07:57:00;;;;;;;;;;;;;;;34.66;32.86;99297.72;5086851;28;19938;-70
2022/07/27 07:59:26;;;;;;;;;;;;;;;34.80;32.55;99299.09;5116483;28;19939;-68
2022/07/27 08:01:51;;;;;;;;;;;;;;;34.73;32.86;99303.50;5087274;28;19965;-68
2022/07/27 08:04:16;;;;;;;;;;;;;;;34.88;32.07;99303.75;5111966;28;19973;-68
2022/07/27 08:06:42;;;;;;;;;;;;;;;34.89;32.18;99305.38;5109339;28;19954;-68
2022/07/27 08:09:07;;;;;;;;;;;;;;;35.27;32.01;99307.19;5108591;28;19919;-68
2022/07/27 08:11:33;;;;;;;;;;;;;;;35.34;31.09;99299.25;5088396;28;19919;-68
2022/07/27 08:13:58;;;;;;;;;;;;;;;35.28;32.05;99306.06;5110400;28;20193;-68
2022/07/27 08:16:24;;;;;;;;;;;;;;;35.08;31.34;99295.84;5106804;28;19916;-68
2022/07/27 08:18:49;;;;;;;;;;;;;;;34.88;31.57;99301.00;5104903;28;20101;-68
2022/07/27 08:21:14;;;;;;;;;;;;;;;35.07;31.42;99294.25;5106543;28;19982;-68
2022/07/27 08:23:40;;;;;;;;;;;;;;;35.12;30.91;99294.03;5113472;28;19924;-68
2022/07/27 08:26:05;;;;;;;;;;;;;;;35.06;31.67;99300.91;5109148;28;19947;-68
2022/07/27 08:28:30;;;;;;;;;;;;;;;35.49;30.33;99295.88;5111858;28;19911;-68
2022/07/27 08:30:55;;;;;;;;;;;;;;;35.90;30.65;99290.66;5107396;28;19951;-68
2022/07/27 08:33:21;;;;;;;;;;;;;;;35.97;30.25;99290.88;5109087;28;19947;-68
2022/07/27 08:35:46;;;;;;;;;;;;;;;36.02;29.70;99290.66;5087436;28;20114;-68
2022/07/27 08:38:11;;;;;;;;;;;;;;;36.02;30.09;99282.41;5108109;28;20162;-67
2022/07/27 08:40:37;;;;;;;;;;;;;;;35.69;30.56;99285.97;5110011;28;19954;-68
2022/07/27 08:43:03;;;;;;;;;;;;;;;35.61;30.48;99283.31;5106190;28;19954;-68
2022/07/27 08:45:29;;;;;;;;;;;;;;;36.00;29.39;99282.75;5106637;28;20132;-68
2022/07/27 08:47:54;;;;;;;;;;;;;;;35.99;28.63;99283.09;5104635;28;19983;-68
2022/07/27 08:50:23;;;;;;;;;;;;;;;35.53;29.85;99279.50;5103921;28;19961;-68
2022/07/27 08:52:48;;;;;;;;;;;;;;;35.83;30.01;99271.91;5104010;28;20261;-68
2022/07/27 08:55:14;;;;;;;;;;;;;;;35.64;30.20;99277.13;5103806;28;19923;-68
2022/07/27 08:57:39;;;;;;;;;;;;;;;35.63;29.37;99278.25;5114179;28;20071;-68
2022/07/27 09:00:05;;;;;;;;;;;;;;;35.73;29.80;99264.06;5109682;28;19916;-67
2022/07/27 09:02:30;;;;;;;;;;;;;;;35.87;29.92;99272.84;5110623;28;19919;-68
2022/07/27 09:04:56;;;;;;;;;;;;;;;35.80;28.62;99269.81;5108161;28;20235;-68
2022/07/27 09:07:26;;;;;;;;;;;;;;;35.79;28.99;99270.97;5105298;28;19946;-68
2022/07/27 09:09:51;;;;;;;;;;;;;;;35.91;29.61;99271.03;5086348;28;20251;-68
2022/07/27 09:12:16;;;;;;;;;;;;;;;36.01;29.87;99265.06;5104427;28;19978;-68
2022/07/27 09:14:42;;;;;;;;;;;;;;;35.77;29.75;99257.53;5104332;28;19912;-68
2022/07/27 09:17:24;;;;;;;;;;;;;;;35.58;28.68;99221.47;5102351;28;19923;-68
2022/07/27 09:19:53;;;;;;;;;;;;;;;35.73;29.88;99248.34;5111281;28;19952;-68
2022/07/27 09:22:51;;;;;;;;;;;;;;;35.99;29.18;99248.06;5103078;28;19946;-68
2022/07/27 09:25:18;;;;;;;;;;;;;;;35.94;30.44;99247.50;5079642;28;19922;-68
2022/07/27 09:27:44;;;;;;;;;;;;;;;36.15;30.08;99246.25;5111832;28;20146;-68
2022/07/27 09:30:11;;;;;;;;;;;;;;;36.02;29.80;99247.38;5111680;28;20207;-68
2022/07/27 09:32:37;;;;;;;;;;;;;;;36.33;28.58;99249.59;5087005;28;20215;-68
2022/07/27 09:35:16;;;;;;;;;;;;;;;36.28;29.02;99247.09;5105288;28;19995;-68
2022/07/27 09:37:41;;;;;;;;;;;;;;;36.10;29.36;99242.91;5106320;28;19912;-68
2022/07/27 09:40:17;;;;;;;;;;;;;;;35.82;30.52;99246.31;5083500;28;19954;-68
2022/07/27 09:42:43;;;;;;;;;;;;;;;36.09;28.73;99236.59;5104207;28;19919;-69
2022/07/27 09:45:27;;;;;;;;;;;;;;;35.71;29.72;99236.06;5103621;28;20143;-68
2022/07/27 09:47:53;;;;;;;;;;;;;;;35.52;29.99;99236.59;5102631;28;19958;-68
2022/07/27 09:50:22;;;;;;;;;;;;;;;35.62;29.72;99230.66;5102349;28;19916;-68
2022/07/27 09:52:47;;;;;;;;;;;;;;;35.59;28.99;99228.56;5109046;28;20181;-68
2022/07/27 09:55:13;;;;;;;;;;;;;;;35.58;29.37;99226.97;5107975;28;20004;-68
2022/07/27 09:57:54;;;;;;;;;;;;;;;35.60;30.79;99224.66;5111832;28;19959;-68
2022/07/27 10:00:20;;;;;;;;;;;;;;;35.68;29.25;99228.47;5106130;28;19982;-68
2022/07/27 10:02:46;;;;;;;;;;;;;;;35.69;28.80;99214.38;5109251;28;20265;-68
2022/07/27 10:05:12;;;;;;;;;;;;;;;35.70;27.89;99220.69;5105220;28;19916;-68
2022/07/27 10:07:38;;;;;;;;;;;;;;;35.59;26.99;99225.00;5102371;28;19919;-68
2022/07/27 10:10:03;;;;;;;;;;;;;;;35.63;26.10;99215.72;5108215;28;19915;-68
2022/07/27 10:12:29;;;;;;;;;;;;;;;35.51;27.45;99221.22;5107652;28;19912;-68
2022/07/27 10:14:54;;;;;;;;;;;;;;;35.71;24.27;99214.81;5093433;28;19915;-67
2022/07/27 10:17:20;;;;;;;;;;;;;;;35.75;24.09;99213.00;5101845;28;19950;-68
2022/07/27 10:19:46;;;;;;;;;;;;;;;35.77;23.33;99210.72;5104977;28;19924;-68
2022/07/27 10:22:12;;;;;;;;;;;;;;;35.72;24.10;99210.13;5103183;28;19946;-68
2022/07/27 10:24:37;;;;;;;;;;;;;;;35.49;24.80;99210.53;5106714;28;20217;-68
2022/07/27 10:27:22;;;;;;;;;;;;;;;35.40;26.93;99209.03;5105799;28;19962;-68
2022/07/27 10:29:48;;;;;;;;;;;;;;;35.64;26.74;99205.53;5106521;28;19920;-68
2022/07/27 10:32:22;;;;;;;;;;;;;;;35.70;25.71;99202.19;5102781;28;20272;-68
2022/07/27 10:34:48;;;;;;;;;;;;;;;35.77;26.07;99209.91;5101775;28;19916;-68
2022/07/27 10:37:13;;;;;;;;;;;;;;;35.76;24.11;99208.28;5104157;28;19911;-68
2022/07/27 10:39:43;;;;;;;;;;;;;;;35.84;24.82;99207.41;5103765;28;20220;-68
2022/07/27 10:42:18;;;;;;;;;;;;;;;35.76;25.29;99198.09;5101773;28;19984;-68
2022/07/27 10:44:56;;;;;;;;;;;;;;;35.82;24.03;99199.50;5107306;28;20186;-68
2022/07/27 10:47:34;;;;;;;;;;;;;;;36.03;24.96;99196.63;5102372;28;19951;-68
2022/07/27 10:50:15;;;;;;;;;;;;;;;35.88;25.37;99193.75;5101050;28;19962;-68
2022/07/27 10:52:41;;;;;;;;;;;;;;;35.82;24.61;99191.22;5106272;28;19946;-68
2022/07/27 10:55:07;;;;;;;;;;;;;;;35.93;25.62;99194.34;5105950;28;19950;-68
2022/07/27 10:57:34;;;;;;;;;;;;;;;35.95;25.29;99182.97;5109264;28;19911;-68
2022/07/27 11:00:05;;;;;;;;;;;;;;;36.27;24.08;99182.03;5104197;28;20198;-68
2022/07/27 11:02:38;;;;;;;;;;;;;;;36.25;24.45;99178.03;5105724;28;19979;-68
2022/07/27 11:05:04;;;;;;;;;;;;;;;36.23;23.00;99172.06;5102684;28;20114;-68
2022/07/27 11:07:29;;;;;;;;;;;;;;;36.22;23.89;99171.25;5102263;28;19912;-68
2022/07/27 11:09:54;;;;;;;;;;;;;;;36.17;24.33;99176.19;5083460;28;19981;-68
2022/07/27 11:12:20;;;;;;;;;;;;;;;36.24;23.60;99168.16;5083408;28;19920;-68
2022/07/27 11:14:48;;;;;;;;;;;;;;;36.13;24.01;99167.81;5111473;28;19915;-68
2022/07/27 11:17:15;;;;;;;;;;;;;;;36.17;23.58;99170.69;5105550;28;20005;-68
2022/07/27 11:19:40;;;;;;;;;;;;;;;36.16;24.40;99158.84;5107344;28;19918;-67
2022/07/27 11:22:06;;;;;;;;;;;;;;;36.01;24.83;99168.63;5104381;28;19943;-68
2022/07/27 11:24:32;;;;;;;;;;;;;;;36.02;25.22;99159.22;5104885;28;19914;-68
2022/07/27 11:26:58;;;;;;;;;;;;;;;35.86;23.78;99157.50;5082367;28;19918;-68
2022/07/27 11:29:23;;;;;;;;;;;;;;;35.71;26.14;99151.47;5102171;28;19923;-68
2022/07/27 11:31:50;;;;;;;;;;;;;;;35.61;24.55;99151.94;5101290;28;19978;-68
2022/07/27 11:34:16;;;;;;;;;;;;;;;35.60;25.04;99155.03;5096495;28;19920;-68
2022/07/27 11:36:49;;;;;;;;;;;;;;;35.50;25.02;99153.53;5094862;28;19922;-68
2022/07/27 11:39:21;;;;;;;;;;;;;;;35.60;23.98;99141.25;5076346;28;20124;-68
2022/07/27 11:41:47;;;;;;;;;;;;;;;35.83;24.61;99142.44;5091806;28;20132;-68
2022/07/27 11:44:13;;;;;;;;;;;;;;;35.76;24.02;99151.25;5094297;28;19920;-68
2022/07/27 11:46:43;;;;;;;;;;;;;;;35.74;23.08;99150.78;5093194;28;19954;-68
2022/07/27 11:49:15;;;;;;;;;;;;;;;35.80;23.78;99143.09;5092672;28;20151;-68
2022/07/27 11:51:42;;;;;;;;;;;;;;;35.82;22.62;99141.66;5093843;28;19934;-68
2022/07/27 11:54:09;;;;;;;;;;;;;;;35.79;22.79;99139.56;5091794;28;19989;-68
2022/07/27 11:56:36;;;;;;;;;;;;;;;35.80;24.46;99141.19;5093279;28;20182;-68
2022/07/27 11:59:01;;;;;;;;;;;;;;;35.77;24.84;99141.03;5094478;28;20075;-68
2022/07/27 12:01:32;;;;;;;;;;;;;;;35.81;23.72;99142.78;5094913;28;20038;-68
2022/07/27 12:04:01;;;;;;;;;;;;;;;36.01;23.13;99134.75;5097802;28;19972;-70
2022/07/27 12:06:27;;;;;;;;;;;;;;;35.89;24.57;99138.31;5097767;28;19927;-70
2022/07/27 12:08:52;;;;;;;;;;;;;;;35.73;23.62;99134.63;5099575;28;20186;-71
2022/07/27 12:11:26;;;;;;;;;;;;;;;35.80;24.53;99127.41;5096560;28;19920;-70
2022/07/27 12:13:56;;;;;;;;;;;;;;;35.64;23.71;99128.41;5095257;28;20091;-70
2022/07/27 12:16:21;;;;;;;;;;;;;;;35.82;23.80;99130.63;5098186;28;19924;-71
2022/07/27 12:18:46;;;;;;;;;;;;;;;35.88;23.63;99113.88;5098406;28;19935;-70
2022/07/27 12:21:16;;;;;;;;;;;;;;;35.75;24.00;99113.84;5096642;28;20219;-70
2022/07/27 12:23:48;;;;;;;;;;;;;;;35.75;24.71;99111.09;5098556;28;20158;-71
2022/07/27 12:26:20;;;;;;;;;;;;;;;35.93;23.36;99110.88;5080601;28;19920;-70
2022/07/27 12:28:45;;;;;;;;;;;;;;;35.92;23.54;99106.53;5094991;28;20221;-70
2022/07/27 12:31:17;;;;;;;;;;;;;;;36.04;23.59;99103.75;5096167;28;19916;-68
2022/07/27 12:33:42;;;;;;;;;;;;;;;35.90;24.98;99106.06;5099616;28;19988;-68
2022/07/27 12:36:08;;;;;;;;;;;;;;;35.85;24.01;99107.09;5095987;28;19916;-68
2022/07/27 12:38:42;;;;;;;;;;;;;;;35.89;24.39;99105.25;5081014;28;19912;-68
2022/07/27 12:41:07;;;;;;;;;;;;;;;35.75;23.99;99099.25;5097360;28;19923;-68
2022/07/27 12:43:32;;;;;;;;;;;;;;;35.89;24.16;99101.69;5082398;28;19920;-68
2022/07/27 12:46:08;;;;;;;;;;;;;;;35.98;23.23;99100.44;5095908;28;19916;-68
2022/07/27 12:48:37;;;;;;;;;;;;;;;36.05;24.44;99099.84;5099216;28;19920;-68